Time;durP1;ratioP1;P1;durP2;ratioP2;P2;SDS_P1;SDS_P2;PMS_P1;PMS_P2;Temp;Humidity;BMP_temperature;BMP_pressure;BME280_temperature;BME280_humidity;BME280_pressure;Samples;Min_cycle;Max_cycle;Signal;HPM_P1;HPM_P2
2023/04/25 00:00:28;;;;;;;0.50;0.50;;;;;;;7.25;76.27;96273.25;29395;272;63009;-57
2023/04/25 00:00:59;;;;;;;0.50;0.50;;;;;;;7.24;76.19;96276.22;29395;205;63004;-56
2023/04/25 00:01:33;;;;;;;0.50;0.50;;;;;;;7.23;75.89;96280.81;29395;210;63009;-57
2023/04/25 00:02:05;;;;;;;0.50;0.50;;;;;;;7.22;75.68;96279.22;29395;244;63004;-57
2023/04/25 00:02:39;;;;;;;0.50;0.50;;;;;;;7.22;75.74;96284.59;29395;196;63008;-58
2023/04/25 00:03:13;;;;;;;0.50;0.50;;;;;;;7.22;75.57;96284.59;29395;213;63004;-57
2023/04/25 00:03:45;;;;;;;0.50;0.50;;;;;;;7.22;75.58;96279.22;29395;208;63009;-57
2023/04/25 00:04:17;;;;;;;0.50;0.50;;;;;;;7.22;76.02;96279.22;29394;212;64009;-56
2023/04/25 00:04:48;;;;;;;0.50;0.50;;;;;;;7.21;75.64;96282.19;29395;273;63009;-57
2023/04/25 00:05:24;;;;;;;0.50;0.50;;;;;;;7.22;76.07;96271.12;29395;204;63005;-56
2023/04/25 00:05:56;;;;;;;0.50;0.50;;;;;;;7.24;76.02;96276.22;29395;202;63009;-56
2023/04/25 00:06:29;;;;;;;0.50;0.50;;;;;;;7.26;75.69;96269.47;29394;384;64009;-56
2023/04/25 00:07:01;;;;;;;0.50;0.50;;;;;;;7.28;75.66;96267.25;29395;219;63009;-57
2023/04/25 00:07:33;;;;;;;0.50;0.50;;;;;;;7.29;75.11;96273.44;29395;215;63005;-57
2023/04/25 00:08:05;;;;;;;0.50;0.50;;;;;;;7.30;75.19;96273.16;29395;221;63009;-57
2023/04/25 00:08:36;;;;;;;0.50;0.50;;;;;;;7.28;75.30;96267.25;29395;253;63004;-57
2023/04/25 00:09:09;;;;;;;0.50;0.50;;;;;;;7.28;75.56;96267.25;29395;233;63015;-56
2023/04/25 00:09:42;;;;;;;0.50;0.50;;;;;;;7.27;75.23;96271.06;29395;243;63014;-57
2023/04/25 00:10:13;;;;;;;0.50;0.50;;;;;;;7.26;75.50;96258.66;29395;209;63008;-56
2023/04/25 00:10:45;;;;;;;0.50;0.50;;;;;;;7.31;75.34;96261.28;29395;227;63004;-56
2023/04/25 00:11:16;;;;;;;0.50;0.50;;;;;;;7.33;74.91;96264.50;29395;226;63009;-57
2023/04/25 00:11:47;;;;;;;0.50;0.50;;;;;;;7.35;74.75;96265.03;29394;219;64009;-57
2023/04/25 00:12:18;;;;;;;0.50;0.50;;;;;;;7.35;74.45;96259.63;29395;275;63016;-56
2023/04/25 00:12:50;;;;;;;0.50;0.50;;;;;;;7.35;74.15;96261.50;29394;216;64009;-57
2023/04/25 00:13:21;;;;;;;0.50;0.50;;;;;;;7.33;74.46;96264.50;29395;233;63009;-57
2023/04/25 00:13:54;;;;;;;0.50;0.50;;;;;;;7.32;74.38;96262.88;29395;196;63005;-56
2023/04/25 00:14:25;;;;;;;0.50;0.50;;;;;;;7.30;74.30;96265.06;29395;252;63009;-57
2023/04/25 00:14:57;;;;;;;0.50;0.50;;;;;;;7.27;74.31;96262.97;29395;319;63004;-57
2023/04/25 00:15:30;;;;;;;0.50;0.50;;;;;;;7.28;74.87;96263.75;29395;269;63023;-57
2023/04/25 00:16:02;;;;;;;0.50;0.50;;;;;;;7.26;74.93;96261.38;29395;216;63004;-57
2023/04/25 00:16:34;;;;;;;0.50;0.50;;;;;;;7.25;75.16;96261.66;29395;214;63009;-57
2023/04/25 00:17:05;;;;;;;0.50;0.50;;;;;;;7.24;76.05;96260.84;29395;289;63004;-57
2023/04/25 00:17:38;;;;;;;0.50;0.50;;;;;;;7.22;76.25;96254.12;29395;204;63008;-56
2023/04/25 00:18:11;;;;;;;0.50;0.50;;;;;;;7.19;76.04;96255.50;29394;203;64008;-56
2023/04/25 00:18:43;;;;;;;0.57;0.57;;;;;;;7.18;75.79;96258.47;29395;210;63019;-56
2023/04/25 00:19:14;;;;;;;0.50;0.50;;;;;;;7.20;75.62;96259.81;29395;221;63005;-56
2023/04/25 00:19:46;;;;;;;0.50;0.50;;;;;;;7.22;75.37;96257.63;29395;228;63009;-57
2023/04/25 00:20:17;;;;;;;0.50;0.50;;;;;;;7.23;74.98;96259.25;29395;198;63010;-56
2023/04/25 00:20:49;;;;;;;0.50;0.50;;;;;;;7.23;75.16;96253.84;29394;233;64007;-56
2023/04/25 00:21:22;;;;;;;0.50;0.50;;;;;;;7.25;75.06;96257.06;29395;261;63005;-57
2023/04/25 00:21:53;;;;;;;0.50;0.50;;;;;;;7.24;75.23;96260.03;29394;210;64013;-56
2023/04/25 00:22:25;;;;;;;0.50;0.50;;;;;;;7.24;75.55;96255.44;29394;227;64009;-57
2023/04/25 00:22:58;;;;;;;0.50;0.50;;;;;;;7.23;75.46;96258.44;29395;217;63009;-57
2023/04/25 00:23:30;;;;;;;0.50;0.50;;;;;;;7.25;75.60;96257.06;29395;196;63004;-56
2023/04/25 00:24:01;;;;;;;0.50;0.50;;;;;;;7.27;75.27;96254.88;29395;300;63009;-56
2023/04/25 00:24:36;;;;;;;0.50;0.50;;;;;;;7.32;74.77;96257.50;29395;223;63004;-57
2023/04/25 00:25:08;;;;;;;0.50;0.50;;;;;;;7.36;74.18;96257.72;29395;198;63009;-57
2023/04/25 00:25:39;;;;;;;0.50;0.50;;;;;;;7.35;73.87;96256.91;29395;278;63005;-57
2023/04/25 00:26:10;;;;;;;0.50;0.50;;;;;;;7.38;74.40;96260.94;29395;259;63027;-60
2023/04/25 00:26:42;;;;;;;0.50;0.50;;;;;;;7.41;73.99;96254.97;29395;275;63005;-56
2023/04/25 00:27:14;;;;;;;0.50;0.50;;;;;;;7.40;73.81;96248.78;29395;211;63009;-56
2023/04/25 00:27:45;;;;;;;0.50;0.50;;;;;;;7.41;73.77;96249.56;29394;202;64009;-56
2023/04/25 00:28:18;;;;;;;0.50;0.50;;;;;;;7.40;73.93;96251.47;29395;225;63009;-56
2023/04/25 00:28:49;;;;;;;0.50;0.50;;;;;;;7.43;73.73;96252.00;29395;206;63005;-56
2023/04/25 00:29:20;;;;;;;0.50;0.50;;;;;;;7.40;73.93;96259.56;29395;213;63009;-56
2023/04/25 00:29:52;;;;;;;0.50;0.50;;;;;;;7.38;73.85;96253.66;29395;231;63004;-55
2023/04/25 00:30:23;;;;;;;0.50;0.50;;;;;;;7.38;73.97;96260.94;29395;218;63009;-56
2023/04/25 00:30:55;;;;;;;0.50;0.50;;;;;;;7.37;73.93;96251.25;29395;204;63004;-57
2023/04/25 00:31:26;;;;;;;0.50;0.50;;;;;;;7.35;74.12;96256.91;29395;211;63009;-57
2023/04/25 00:31:58;;;;;;;0.50;0.50;;;;;;;7.34;74.30;96258.00;29395;205;63004;-57
2023/04/25 00:32:29;;;;;;;0.50;0.50;;;;;;;7.33;74.46;96256.41;29395;202;63008;-57
2023/04/25 00:33:00;;;;;;;0.50;0.50;;;;;;;7.31;74.50;96255.88;29394;297;64009;-57
2023/04/25 00:33:32;;;;;;;0.50;0.50;;;;;;;7.30;74.89;96259.69;29394;211;64009;-56
2023/04/25 00:34:03;;;;;;;0.50;0.50;;;;;;;7.28;74.91;96253.75;29395;197;63005;-58
2023/04/25 00:34:34;;;;;;;0.50;0.50;;;;;;;7.28;74.78;96256.47;29395;264;63024;-56
2023/04/25 00:35:06;;;;;;;0.50;0.50;;;;;;;7.29;74.71;96251.87;29395;198;63005;-58
2023/04/25 00:35:38;;;;;;;0.45;0.45;;;;;;;7.28;74.69;96256.47;29395;200;63009;-57
2023/04/25 00:36:09;;;;;;;0.50;0.50;;;;;;;7.27;74.76;96254.88;29395;206;63005;-56
2023/04/25 00:36:40;;;;;;;0.50;0.50;;;;;;;7.27;74.61;96249.47;29395;276;63005;-57
2023/04/25 00:37:12;;;;;;;0.50;0.50;;;;;;;7.28;74.71;96251.06;29395;204;63004;-56
2023/04/25 00:37:43;;;;;;;0.50;0.50;;;;;;;7.28;75.01;96251.06;29395;212;63009;-57
2023/04/25 00:38:15;;;;;;;0.55;0.55;;;;;;;7.28;75.57;96256.47;29394;214;64009;-56
2023/04/25 00:38:46;;;;;;;0.50;0.50;;;;;;;7.25;75.52;96251.66;29395;211;63009;-56
2023/04/25 00:39:17;;;;;;;0.60;0.60;;;;;;;7.24;75.53;96250.06;29395;222;63015;-56
2023/04/25 00:39:49;;;;;;;0.50;0.50;;;;;;;7.24;75.68;96255.44;29395;284;63008;-56
2023/04/25 00:40:21;;;;;;;0.50;0.50;;;;;;;7.25;75.63;96257.06;29395;204;63005;-56
2023/04/25 00:40:52;;;;;;;0.50;0.50;;;;;;;7.25;75.52;96256.25;29395;215;63009;-56
2023/04/25 00:41:26;;;;;;;0.50;0.50;;;;;;;7.23;75.42;96253.84;29395;315;63005;-56
2023/04/25 00:41:58;;;;;;;0.50;0.50;;;;;;;7.24;75.47;96260.03;29395;229;63009;-57
2023/04/25 00:42:30;;;;;;;0.50;0.50;;;;;;;7.24;75.56;96260.84;29395;208;63005;-56
2023/04/25 00:43:01;;;;;;;0.50;0.50;;;;;;;7.26;75.75;96257.88;29395;354;63009;-56
2023/04/25 00:43:33;;;;;;;0.50;0.50;;;;;;;7.27;75.48;96257.56;29394;318;64016;-57
2023/04/25 00:44:07;;;;;;;0.50;0.50;;;;;;;7.27;75.50;96252.19;29395;322;63009;-56
2023/04/25 00:44:39;;;;;;;0.50;0.50;;;;;;;7.28;75.71;96255.66;29395;368;63004;-57
2023/04/25 00:45:14;;;;;;;0.50;0.50;;;;;;;7.26;76.01;96252.47;29395;348;63009;-58
2023/04/25 00:45:48;;;;;;;0.50;0.50;;;;;;;7.25;75.77;96251.66;29395;213;63004;-57
2023/04/25 00:46:19;;;;;;;0.50;0.50;;;;;;;7.24;75.72;96252.75;29395;202;63009;-57
2023/04/25 00:46:52;;;;;;;0.50;0.50;;;;;;;7.25;75.47;96251.66;29395;279;63004;-57
2023/04/25 00:47:24;;;;;;;0.50;0.50;;;;;;;7.25;75.33;96246.25;29394;241;64013;-57
2023/04/25 00:47:56;;;;;;;0.50;0.50;;;;;;;7.25;75.37;96250.84;29394;209;64009;-57
2023/04/25 00:48:27;;;;;;;0.50;0.50;;;;;;;7.24;75.14;96244.66;29395;220;63009;-58
2023/04/25 00:49:02;;;;;;;0.50;0.50;;;;;;;7.22;74.79;96249.53;29395;346;63005;-56
2023/04/25 00:49:34;;;;;;;0.50;0.50;;;;;;;7.22;75.49;96249.53;29395;215;63009;-56
2023/04/25 00:50:08;;;;;;;0.50;0.50;;;;;;;7.22;75.46;96246.03;29395;218;63011;-57
2023/04/25 00:50:40;;;;;;;0.50;0.50;;;;;;;7.25;75.28;96248.97;29395;202;63009;-58
2023/04/25 00:51:16;;;;;;;0.50;0.50;;;;;;;7.27;74.97;96249.47;29395;311;63005;-57
2023/04/25 00:51:48;;;;;;;0.40;0.40;;;;;;;7.27;75.58;96243.28;29395;274;63009;-57
2023/04/25 00:52:20;;;;;;;0.50;0.50;;;;;;;7.25;75.58;96243.56;29395;216;63004;-57
2023/04/25 00:52:52;;;;;;;0.50;0.50;;;;;;;7.24;75.66;96243.84;29395;225;63009;-57
2023/04/25 00:53:27;;;;;;;0.50;0.50;;;;;;;7.22;75.60;96246.84;29394;272;64009;-57
2023/04/25 00:54:02;;;;;;;0.50;0.50;;;;;;;7.21;76.36;96247.94;29395;203;63009;-57
2023/04/25 00:54:34;;;;;;;0.50;0.50;;;;;;;7.19;76.41;96247.41;29395;257;63017;-57
2023/04/25 00:55:06;;;;;;;0.50;0.50;;;;;;;7.17;76.64;96240.69;29395;275;63008;-57
2023/04/25 00:55:37;;;;;;;0.50;0.50;;;;;;;7.16;76.64;96242.59;29395;264;63005;-62
2023/04/25 00:56:08;;;;;;;0.50;0.50;;;;;;;7.16;76.59;96241.78;29395;243;63020;-57
2023/04/25 00:56:40;;;;;;;0.50;0.50;;;;;;;7.16;76.46;96242.59;29395;224;63005;-58
2023/04/25 00:57:11;;;;;;;0.50;0.50;;;;;;;7.17;76.51;96246.09;29395;211;63017;-55
2023/04/25 00:57:43;;;;;;;0.50;0.50;;;;;;;7.17;76.48;96246.09;29395;323;63005;-56
2023/04/25 00:58:14;;;;;;;0.50;0.50;;;;;;;7.18;76.42;96240.41;29395;209;63009;-56
2023/04/25 00:58:45;;;;;;;0.50;0.50;;;;;;;7.19;76.27;96247.41;29394;280;64009;-56
2023/04/25 00:59:20;;;;;;;0.50;0.50;;;;;;;7.20;76.43;96246.31;29395;275;63016;-57
2023/04/25 00:59:52;;;;;;;0.50;0.50;;;;;;;7.20;76.62;96243.63;29395;325;63004;-57
2023/04/25 01:00:24;;;;;;;0.50;0.50;;;;;;;7.21;76.53;96245.22;29395;222;63017;-57
2023/04/25 01:00:57;;;;;;;0.50;0.50;;;;;;;7.20;76.35;96243.63;29395;210;63004;-57
2023/04/25 01:01:28;;;;;;;0.50;0.50;;;;;;;7.20;76.51;96243.63;29395;197;63008;-57
2023/04/25 01:02:00;;;;;;;0.50;0.50;;;;;;;7.20;76.59;96238.22;29394;258;64008;-57
2023/04/25 01:02:35;;;;;;;0.50;0.50;;;;;;;7.20;76.84;96243.63;29395;203;63008;-56
2023/04/25 01:03:06;;;;;;;0.50;0.50;;;;;;;7.19;76.90;96242.00;29395;230;63005;-57
2023/04/25 01:03:42;;;;;;;0.50;0.50;;;;;;;7.19;76.93;96241.22;29395;303;63009;-56
2023/04/25 01:04:14;;;;;;;0.50;0.50;;;;;;;7.19;76.85;96242.00;29395;205;63005;-57
2023/04/25 01:04:45;;;;;;;0.50;0.50;;;;;;;7.19;76.88;96236.63;29395;216;63009;-56
2023/04/25 01:05:18;;;;;;;0.50;0.50;;;;;;;7.20;76.80;96240.91;29395;299;63005;-57
2023/04/25 01:05:51;;;;;;;0.50;0.50;;;;;;;7.21;76.97;96239.84;29395;228;63009;-56
2023/04/25 01:06:22;;;;;;;0.50;0.50;;;;;;;7.22;76.81;96236.03;29395;239;63004;-57
2023/04/25 01:06:54;;;;;;;0.50;0.50;;;;;;;7.24;76.92;96238.47;29395;226;63009;-58
2023/04/25 01:07:26;;;;;;;0.50;0.50;;;;;;;7.25;76.55;96231.97;29394;245;64009;-56
2023/04/25 01:07:59;;;;;;;0.50;0.50;;;;;;;7.24;76.40;96238.47;29394;317;64013;-57
2023/04/25 01:08:31;;;;;;;0.50;0.50;;;;;;;7.24;76.09;96230.34;29395;205;63004;-57
2023/04/25 01:09:02;;;;;;;0.50;0.50;;;;;;;7.25;76.28;96240.06;29395;208;63008;-56
2023/04/25 01:09:35;;;;;;;0.50;0.50;;;;;;;7.25;75.97;96235.47;29395;309;63005;-58
2023/04/25 01:10:11;;;;;;;0.50;0.50;;;;;;;7.25;76.30;96235.47;29395;225;63009;-57
2023/04/25 01:10:42;;;;;;;0.50;0.50;;;;;;;7.25;76.34;96235.47;29395;216;63009;-61
2023/04/25 01:11:13;;;;;;;0.50;0.50;;;;;;;7.24;76.55;96231.16;29395;290;63009;-56
2023/04/25 01:11:45;;;;;;;0.50;0.50;;;;;;;7.25;76.52;96230.06;29395;203;63017;-57
2023/04/25 01:12:19;;;;;;;0.50;0.50;;;;;;;7.25;76.82;96229.28;29395;224;63009;-56
2023/04/25 01:12:51;;;;;;;0.50;0.50;;;;;;;7.24;76.58;96228.47;29395;257;63005;-57
2023/04/25 01:13:22;;;;;;;0.50;0.50;;;;;;;7.25;76.56;96227.38;29394;254;64013;-56
2023/04/25 01:13:53;;;;;;;0.50;0.50;;;;;;;7.25;76.48;96230.06;29395;271;63016;-56
2023/04/25 01:14:24;;;;;;;0.50;0.50;;;;;;;7.26;76.58;96231.69;29395;259;63009;-58
2023/04/25 01:14:56;;;;;;;0.50;0.50;;;;;;;7.26;76.44;96231.69;29395;271;63004;-56
2023/04/25 01:15:28;;;;;;;0.50;0.50;;;;;;;7.27;76.83;96236.00;29395;196;63009;-57
2023/04/25 01:16:01;;;;;;;0.50;0.50;;;;;;;7.28;76.50;96224.06;29395;212;63004;-57
2023/04/25 01:16:33;;;;;;;0.50;0.50;;;;;;;7.29;76.36;96233.78;29395;209;63008;-57
2023/04/25 01:17:05;;;;;;;0.50;0.50;;;;;;;7.28;76.44;96234.88;29395;289;63005;-58
2023/04/25 01:17:37;;;;;;;0.50;0.50;;;;;;;7.27;77.32;96227.91;29395;213;63009;-57
2023/04/25 01:18:11;;;;;;;0.50;0.50;;;;;;;7.26;77.10;96225.47;29395;238;63007;-57
2023/04/25 01:18:46;;;;;;;0.50;0.50;;;;;;;7.25;76.96;96223.88;29394;311;64014;-56
2023/04/25 01:19:19;;;;;;;0.50;0.50;;;;;;;7.26;76.94;96228.19;29395;238;63005;-56
2023/04/25 01:19:51;;;;;;;0.50;0.50;;;;;;;7.25;77.32;96223.88;29395;307;63009;-57
2023/04/25 01:20:26;;;;;;;0.50;0.50;;;;;;;7.25;77.22;96221.97;29395;227;63005;-57
2023/04/25 01:21:09;;;;;;;0.50;0.50;;;;;;;7.26;77.21;96220.09;29395;248;63009;-56
2023/04/25 01:21:41;;;;;;;0.50;0.50;;;;;;;7.26;77.74;96220.87;29395;210;63004;-57
2023/04/25 01:22:12;;;;;;;0.50;0.50;;;;;;;7.26;78.08;96220.87;29395;226;63009;-57
2023/04/25 01:22:43;;;;;;;0.50;0.50;;;;;;;7.27;78.14;96219.00;29395;222;63018;-57
2023/04/25 01:23:15;;;;;;;0.50;0.50;;;;;;;7.26;77.84;96217.38;29395;235;63009;-57
2023/04/25 01:23:47;;;;;;;0.50;0.50;;;;;;;7.25;77.51;96219.28;29394;204;64008;-56
2023/04/25 01:24:19;;;;;;;0.50;0.50;;;;;;;7.25;77.74;96219.28;29395;215;63008;-57
2023/04/25 01:24:51;;;;;;;0.50;0.50;;;;;;;7.24;77.52;96223.06;29395;234;63005;-57
2023/04/25 01:25:23;;;;;;;0.50;0.50;;;;;;;7.24;77.75;96223.06;29395;209;63009;-57
2023/04/25 01:25:55;;;;;;;0.50;0.50;;;;;;;7.24;77.97;96227.66;29395;264;63005;-57
2023/04/25 01:26:30;;;;;;;0.50;0.50;;;;;;;7.22;78.40;96219.84;29395;285;63009;-56
2023/04/25 01:27:03;;;;;;;0.50;0.50;;;;;;;7.19;78.70;96223.13;29395;202;63005;-57
2023/04/25 01:27:40;;;;;;;0.50;0.50;;;;;;;7.19;78.40;96225.03;29395;235;63009;-57
2023/04/25 01:28:15;;;;;;;0.50;0.50;;;;;;;7.15;78.19;96219.38;29395;222;63005;-63
2023/04/25 01:28:47;;;;;;;0.50;0.50;;;;;;;7.15;78.28;96218.59;29395;251;63009;-56
2023/04/25 01:29:23;;;;;;;0.50;0.50;;;;;;;7.16;78.36;96221.00;29394;215;64009;-56
2023/04/25 01:29:55;;;;;;;0.50;0.50;;;;;;;7.15;78.42;96219.38;29394;214;64009;-57
2023/04/25 01:30:27;;;;;;;0.50;0.50;;;;;;;7.16;78.22;96214.78;29395;236;63004;-56
2023/04/25 01:31:01;;;;;;;0.50;0.50;;;;;;;7.15;78.20;96214.00;29395;223;63009;-55
2023/04/25 01:31:33;;;;;;;0.50;0.50;;;;;;;7.14;78.04;96217.78;29395;313;63004;-57
2023/04/25 01:32:07;;;;;;;0.50;0.50;;;;;;;7.13;78.40;96216.16;29395;288;63008;-57
2023/04/25 01:32:40;;;;;;;0.50;0.50;;;;;;;7.14;77.92;96217.78;29395;228;63011;-57
2023/04/25 01:33:14;;;;;;;0.50;0.50;;;;;;;7.14;78.24;96223.19;29395;215;63009;-57
2023/04/25 01:33:46;;;;;;;0.50;0.50;;;;;;;7.15;78.84;96221.28;29395;334;63005;-57
2023/04/25 01:34:17;;;;;;;0.50;0.50;;;;;;;7.14;78.95;96216.97;29395;196;63009;-57
2023/04/25 01:34:48;;;;;;;0.50;0.50;;;;;;;7.14;78.93;96216.97;29394;202;64009;-56
2023/04/25 01:35:20;;;;;;;0.50;0.50;;;;;;;7.15;78.78;96222.09;29395;204;63009;-57
2023/04/25 01:35:51;;;;;;;0.50;0.50;;;;;;;7.15;79.14;96219.38;29395;215;63005;-57
2023/04/25 01:36:23;;;;;;;0.50;0.50;;;;;;;7.16;78.93;96217.50;29395;197;63009;-56
2023/04/25 01:36:55;;;;;;;0.50;0.50;;;;;;;7.18;78.69;96221.50;29394;227;64009;-57
2023/04/25 01:37:26;;;;;;;0.50;0.50;;;;;;;7.18;79.18;96220.72;29395;311;63009;-57
2023/04/25 01:37:58;;;;;;;0.50;0.50;;;;;;;7.16;79.34;96221.00;29395;249;63004;-57
2023/04/25 01:38:30;;;;;;;0.50;0.50;;;;;;;7.15;79.04;96216.69;29395;334;63009;-57
2023/04/25 01:39:02;;;;;;;0.50;0.50;;;;;;;7.15;78.90;96222.09;29395;246;63004;-62
2023/04/25 01:39:33;;;;;;;0.50;0.50;;;;;;;7.15;79.15;96224.78;29395;197;63008;-57
2023/04/25 01:40:06;;;;;;;0.50;0.50;;;;;;;7.13;79.21;96224.28;29395;236;63005;-57
2023/04/25 01:40:41;;;;;;;0.50;0.50;;;;;;;7.14;79.42;96223.19;29395;203;63009;-57
2023/04/25 01:41:13;;;;;;;0.50;0.50;;;;;;;7.14;79.53;96228.56;29395;197;63005;-56
2023/04/25 01:41:46;;;;;;;0.50;0.50;;;;;;;7.12;79.79;96217.25;29395;234;63009;-56
2023/04/25 01:42:18;;;;;;;0.50;0.50;;;;;;;7.11;79.84;96223.75;29394;332;64009;-56
2023/04/25 01:42:50;;;;;;;0.50;0.50;;;;;;;7.09;79.79;96220.53;29395;226;63009;-57
2023/04/25 01:43:21;;;;;;;0.50;0.50;;;;;;;7.06;79.81;96213.00;29395;203;63005;-57
2023/04/25 01:43:52;;;;;;;0.50;0.50;;;;;;;7.02;79.78;96218.16;29395;210;63009;-56
2023/04/25 01:44:24;;;;;;;0.50;0.50;;;;;;;7.03;79.77;96227.06;29395;210;63004;-56
2023/04/25 01:44:55;;;;;;;0.50;0.50;;;;;;;7.03;79.48;96214.38;29395;253;63009;-57
2023/04/25 01:45:26;;;;;;;0.50;0.50;;;;;;;7.04;79.35;96218.69;29395;269;63004;-58
2023/04/25 01:45:58;;;;;;;0.50;0.50;;;;;;;7.05;79.48;96225.69;29395;262;63009;-57
2023/04/25 01:46:30;;;;;;;0.50;0.50;;;;;;;7.05;79.93;96224.88;29395;212;63004;-58
2023/04/25 01:47:03;;;;;;;0.50;0.50;;;;;;;7.05;79.84;96223.00;29395;256;63008;-56
2023/04/25 01:47:35;;;;;;;0.50;0.50;;;;;;;7.06;79.32;96223.81;29394;227;64009;-56
2023/04/25 01:48:08;;;;;;;0.50;0.50;;;;;;;7.06;79.18;96224.59;29395;253;63009;-57
2023/04/25 01:48:39;;;;;;;0.50;0.50;;;;;;;7.06;79.20;96215.72;29395;219;63005;-57
2023/04/25 01:49:10;;;;;;;0.50;0.50;;;;;;;7.07;79.20;96220.00;29395;200;63009;-57
2023/04/25 01:49:42;;;;;;;0.50;0.50;;;;;;;7.08;79.13;96221.63;29395;200;63005;-58
2023/04/25 01:50:13;;;;;;;0.50;0.50;;;;;;;7.06;79.48;96215.72;29394;291;64013;-57
2023/04/25 01:50:45;;;;;;;0.50;0.50;;;;;;;7.04;79.83;96220.59;29395;303;63005;-56
2023/04/25 01:51:16;;;;;;;0.50;0.50;;;;;;;7.02;80.28;96220.06;29395;236;63009;-57
2023/04/25 01:51:47;;;;;;;0.50;0.50;;;;;;;7.00;80.15;96219.53;29394;215;64009;-61
2023/04/25 01:52:19;;;;;;;0.50;0.50;;;;;;;7.00;80.26;96227.63;29395;247;63009;-56
2023/04/25 01:52:51;;;;;;;0.50;0.50;;;;;;;6.99;80.83;96216.03;29395;196;63004;-57
2023/04/25 01:53:22;;;;;;;0.50;0.50;;;;;;;6.99;81.11;96226.03;29395;246;63009;-63
2023/04/25 01:53:55;;;;;;;0.50;0.50;;;;;;;6.97;81.15;96220.13;29395;218;63004;-57
2023/04/25 01:54:26;;;;;;;0.50;0.50;;;;;;;6.97;80.94;96222.81;29395;202;63008;-57
2023/04/25 01:54:59;;;;;;;0.50;0.50;;;;;;;6.95;80.79;96222.28;29395;228;63005;-56
2023/04/25 01:55:31;;;;;;;0.50;0.50;;;;;;;6.97;80.67;96222.81;29395;264;63009;-56
2023/04/25 01:56:03;;;;;;;0.50;0.50;;;;;;;6.96;80.56;96223.91;29395;231;63005;-56
2023/04/25 01:56:37;;;;;;;0.50;0.50;;;;;;;6.98;80.68;96227.13;29395;231;63009;-57
2023/04/25 01:57:09;;;;;;;0.50;0.50;;;;;;;6.98;80.52;96225.22;29394;221;64009;-56
2023/04/25 01:57:41;;;;;;;0.50;0.50;;;;;;;6.97;80.91;96217.41;29394;199;64013;-57
2023/04/25 01:58:13;;;;;;;0.50;0.50;;;;;;;6.97;80.92;96223.62;29395;373;63005;-57
2023/04/25 01:58:46;;;;;;;0.50;0.50;;;;;;;6.97;80.79;96225.50;29395;215;63009;-56
2023/04/25 01:59:21;;;;;;;0.50;0.50;;;;;;;6.94;81.12;96224.19;29394;206;64009;-56
2023/04/25 02:00:06;;;;;;;0.50;0.50;;;;;;;6.94;81.11;96217.97;29395;203;63009;-57
2023/04/25 02:00:38;;;;;;;0.50;0.50;;;;;;;6.93;81.22;96211.00;29395;206;63004;-56
2023/04/25 02:01:10;;;;;;;0.50;0.50;;;;;;;6.93;80.98;96221.81;29395;219;63009;-56
2023/04/25 02:01:41;;;;;;;0.50;0.50;;;;;;;6.91;81.58;96218.59;29395;278;63004;-58
2023/04/25 02:02:12;;;;;;;0.50;0.50;;;;;;;6.91;81.50;96216.69;29395;318;63008;-57
2023/04/25 02:02:43;;;;;;;0.50;0.50;;;;;;;6.92;81.13;96215.59;29395;198;63005;-56
2023/04/25 02:03:15;;;;;;;0.50;0.50;;;;;;;6.93;81.08;96219.09;29395;208;63009;-57
2023/04/25 02:03:46;;;;;;;0.50;0.50;;;;;;;6.93;80.85;96221.81;29395;204;63005;-58
2023/04/25 02:04:17;;;;;;;0.60;0.60;;;;;;;6.93;81.70;96219.09;29394;222;64013;-57
2023/04/25 02:04:48;;;;;;;0.50;0.50;;;;;;;6.93;81.45;96217.19;29395;207;63005;-56
2023/04/25 02:05:20;;;;;;;0.50;0.50;;;;;;;6.93;81.52;96216.41;29395;220;63009;-57
2023/04/25 02:05:55;;;;;;;0.50;0.50;;;;;;;6.99;81.07;96215.25;29395;221;63004;-57
2023/04/25 02:06:26;;;;;;;0.50;0.50;;;;;;;7.03;80.77;96211.69;29395;349;63009;-57
2023/04/25 02:06:58;;;;;;;0.50;0.50;;;;;;;7.06;80.42;96215.72;29395;335;63004;-56
2023/04/25 02:07:29;;;;;;;0.50;0.50;;;;;;;7.04;80.83;96213.28;29395;210;63009;-57
2023/04/25 02:08:00;;;;;;;0.50;0.50;;;;;;;7.02;81.00;96214.66;29395;216;63004;-56
2023/04/25 02:08:31;;;;;;;0.50;0.50;;;;;;;6.99;81.38;96209.84;29395;198;63008;-57
2023/04/25 02:09:03;;;;;;;0.50;0.50;;;;;;;6.97;81.15;96212.03;29395;202;63004;-57
2023/04/25 02:09:34;;;;;;;0.50;0.50;;;;;;;6.97;80.93;96214.72;29394;199;64005;-57
2023/04/25 02:10:06;;;;;;;0.50;0.50;;;;;;;6.96;80.80;96213.91;29395;273;63005;-56
2023/04/25 02:10:38;;;;;;;0.50;0.50;;;;;;;6.96;81.08;96210.41;29395;204;63009;-57
2023/04/25 02:11:09;;;;;;;0.50;0.50;;;;;;;6.96;80.89;96213.09;29395;257;63005;-56
2023/04/25 02:11:40;;;;;;;0.50;0.50;;;;;;;6.94;81.45;96212.59;29395;213;63024;-56
2023/04/25 02:12:12;;;;;;;0.50;0.50;;;;;;;6.93;81.20;96213.72;29395;204;63005;-57
2023/04/25 02:12:43;;;;;;;0.50;0.50;;;;;;;6.91;81.52;96213.19;29395;196;63009;-62
2023/04/25 02:13:14;;;;;;;0.50;0.50;;;;;;;6.90;81.46;96216.97;29395;295;63005;-57
2023/04/25 02:13:45;;;;;;;0.50;0.50;;;;;;;6.89;81.32;96212.66;29395;216;63009;-57
2023/04/25 02:14:17;;;;;;;1.23;1.23;;;;;;;6.87;81.25;96212.16;29395;217;63004;-56
2023/04/25 02:14:48;;;;;;;0.50;0.50;;;;;;;6.86;81.28;96219.44;29394;198;64013;-56
2023/04/25 02:15:20;;;;;;;0.50;0.50;;;;;;;6.85;81.39;96220.53;29395;204;63004;-58
2023/04/25 02:15:52;;;;;;;0.50;0.50;;;;;;;6.86;81.26;96210.53;29395;226;63008;-57
2023/04/25 02:16:25;;;;;;;0.50;0.50;;;;;;;6.84;81.14;96213.53;29395;220;63004;-58
2023/04/25 02:16:56;;;;;;;0.50;0.50;;;;;;;6.84;80.98;96218.13;29395;330;63015;-57
2023/04/25 02:17:28;;;;;;;0.50;0.50;;;;;;;6.82;81.06;96214.91;29395;372;63005;-57
2023/04/25 02:18:00;;;;;;;0.50;0.50;;;;;;;6.81;80.94;96218.69;29395;228;63009;-62
2023/04/25 02:18:33;;;;;;;0.50;0.50;;;;;;;6.81;80.83;96218.69;29395;284;63005;-57
2023/04/25 02:19:04;;;;;;;0.50;0.50;;;;;;;6.81;80.95;96213.28;29395;283;63009;-56
2023/04/25 02:19:36;;;;;;;0.50;0.50;;;;;;;6.79;81.10;96212.75;29394;220;64009;-56
2023/04/25 02:20:08;;;;;;;0.50;0.50;;;;;;;6.78;81.04;96208.47;29395;220;63009;-57
2023/04/25 02:20:39;;;;;;;0.50;0.50;;;;;;;6.79;81.11;96205.47;29395;233;63005;-57
2023/04/25 02:21:11;;;;;;;0.50;0.50;;;;;;;6.79;81.06;96215.47;29395;213;63009;-57
2023/04/25 02:21:43;;;;;;;0.50;0.50;;;;;;;6.78;80.93;96208.47;29395;236;63004;-56
2023/04/25 02:22:15;;;;;;;0.50;0.50;;;;;;;6.78;80.72;96208.47;29395;262;63009;-56
2023/04/25 02:22:46;;;;;;;0.50;0.50;;;;;;;6.76;80.60;96207.94;29395;261;63004;-56
2023/04/25 02:23:19;;;;;;;0.50;0.50;;;;;;;6.76;80.57;96206.03;29395;257;63009;-57
2023/04/25 02:23:51;;;;;;;0.50;0.50;;;;;;;6.77;80.49;96201.47;29395;226;63014;-57
2023/04/25 02:24:23;;;;;;;0.50;0.50;;;;;;;6.79;80.41;96210.06;29395;197;63009;-56
2023/04/25 02:24:57;;;;;;;0.50;0.50;;;;;;;6.82;80.54;96214.91;29394;244;64009;-57
2023/04/25 02:25:29;;;;;;;0.50;0.50;;;;;;;6.84;79.88;96201.94;29395;214;63009;-57
2023/04/25 02:26:01;;;;;;;0.50;0.50;;;;;;;6.84;79.67;96201.94;29395;207;63005;-56
2023/04/25 02:26:33;;;;;;;0.50;0.50;;;;;;;6.86;79.37;96205.16;29395;244;63009;-56
2023/04/25 02:27:04;;;;;;;0.50;0.50;;;;;;;6.84;79.22;96196.53;29395;202;63005;-57
2023/04/25 02:27:36;;;;;;;0.50;0.50;;;;;;;6.84;79.14;96199.22;29395;236;63017;-56
2023/04/25 02:28:07;;;;;;;0.50;0.50;;;;;;;6.82;79.07;96199.53;29395;270;63005;-63
2023/04/25 02:28:40;;;;;;;0.50;0.50;;;;;;;6.83;78.89;96203.81;29395;214;63023;-56
2023/04/25 02:29:15;;;;;;;0.50;0.50;;;;;;;6.81;78.92;96192.53;29395;219;63017;-56
2023/04/25 02:29:46;;;;;;;0.50;0.50;;;;;;;6.81;79.06;96197.09;29395;247;63009;-55
2023/04/25 02:30:18;;;;;;;0.50;0.50;;;;;;;6.80;79.00;96201.69;29394;225;64009;-57
2023/04/25 02:30:49;;;;;;;0.50;0.50;;;;;;;6.79;78.61;96196.59;29395;246;63009;-57
2023/04/25 02:31:20;;;;;;;0.50;0.50;;;;;;;6.78;78.33;96198.47;29395;290;63004;-57
2023/04/25 02:31:52;;;;;;;0.50;0.50;;;;;;;6.77;78.60;96196.88;29395;250;63009;-57
2023/04/25 02:32:23;;;;;;;0.50;0.50;;;;;;;6.76;78.57;96195.25;29394;202;64009;-57
2023/04/25 02:32:55;;;;;;;0.50;0.50;;;;;;;6.77;78.69;96198.75;29395;197;63009;-56
2023/04/25 02:33:26;;;;;;;0.50;0.50;;;;;;;6.78;78.70;96193.09;29395;220;63005;-57
2023/04/25 02:33:57;;;;;;;0.50;0.50;;;;;;;6.81;78.75;96197.09;29395;202;63009;-62
2023/04/25 02:34:28;;;;;;;0.50;0.50;;;;;;;6.83;78.50;96203.03;29395;226;63005;-56
2023/04/25 02:35:04;;;;;;;0.50;0.50;;;;;;;6.87;77.93;96198.66;29395;208;63009;-57
2023/04/25 02:35:35;;;;;;;0.50;0.50;;;;;;;6.87;77.43;96190.56;29395;215;63005;-56